Time;durP1;ratioP1;P1;durP2;ratioP2;P2;SDS_P1;SDS_P2;PMS_P1;PMS_P2;Temp;Humidity;BMP_temperature;BMP_pressure;BME280_temperature;BME280_humidity;BME280_pressure;Samples;Min_cycle;Max_cycle;Signal;HPM_P1;HPM_P2
2022/04/08 00:01:45;;;;;;;8.83;3.40;;;;;;;;;;5073555;28;20403;-55
2022/04/08 00:04:14;;;;;;;3.67;3.33;;;;;;;;;;5073153;28;20473;-53
2022/04/08 00:06:43;;;;;;;3.87;3.10;;;;;;;;;;5073244;28;20410;-54
2022/04/08 00:09:09;;;;;;;3.50;3.30;;;;;;;;;;5073303;28;20418;-52
2022/04/08 00:11:35;;;;;;;3.20;3.00;;;;;;;;;;5073339;28;20403;-55
2022/04/08 00:14:01;;;;;;;3.30;3.10;;;;;;;;;;5073177;28;20417;-58
2022/04/08 00:16:27;;;;;;;3.40;3.10;;;;;;;;;;5073122;28;20406;-51
2022/04/08 00:18:53;;;;;;;3.80;3.43;;;;;;;;;;5072953;28;20446;-53
2022/04/08 00:21:19;;;;;;;5.03;3.30;;;;;;;;;;5073048;28;20449;-50
2022/04/08 00:23:45;;;;;;;3.40;3.10;;;;;;;;;;5073188;28;20482;-52
2022/04/08 00:26:12;;;;;;;8.57;3.70;;;;;;;;;;5073040;28;20449;-54
2022/04/08 00:28:38;;;;;;;3.17;3.07;;;;;;;;;;5072707;28;20399;-56
2022/04/08 00:31:04;;;;;;;3.30;3.10;;;;;;;;;;5071581;28;20426;-52
2022/04/08 00:33:33;;;;;;;3.60;3.40;;;;;;;;;;5072919;28;20460;-51
2022/04/08 00:35:59;;;;;;;3.63;3.43;;;;;;;;;;5072813;28;20434;-53
2022/04/08 00:38:25;;;;;;;3.57;3.27;;;;;;;;;;5072398;28;20414;-58
2022/04/08 00:40:51;;;;;;;3.77;3.30;;;;;;;;;;5070908;28;20415;-50
2022/04/08 00:43:19;;;;;;;3.20;3.10;;;;;;;;;;5072399;28;20549;-51
2022/04/08 00:45:45;;;;;;;3.53;3.40;;;;;;;;;;5072372;28;20403;-53
2022/04/08 00:48:12;;;;;;;3.93;3.47;;;;;;;;;;5072111;28;20402;-66
2022/04/08 00:50:42;;;;;;;4.60;3.20;;;;;;;;;;5072146;28;20451;-53
2022/04/08 00:53:08;;;;;;;4.00;3.37;;;;;;;;;;5072026;28;20571;-61
2022/04/08 00:55:38;;;;;;;3.40;3.20;;;;;;;;;;5072148;28;20433;-56
2022/04/08 00:58:04;;;;;;;6.20;3.20;;;;;;;;;;5070706;28;20417;-53
2022/04/08 01:00:35;;;;;;;3.17;3.00;;;;;;;;;;5071915;28;20415;-57
2022/04/08 01:03:01;;;;;;;3.50;3.20;;;;;;;;;;5070599;28;20994;-56
2022/04/08 01:05:27;;;;;;;5.17;4.00;;;;;;;;;;5072013;28;20473;-54
2022/04/08 01:07:57;;;;;;;2.83;2.73;;;;;;;;;;5071959;28;20407;-58
2022/04/08 01:10:23;;;;;;;4.10;3.27;;;;;;;;;;5071958;28;20419;-51
2022/04/08 01:12:49;;;;;;;3.60;3.30;;;;;;;;;;5071852;28;20529;-52
2022/04/08 01:15:19;;;;;;;3.40;3.10;;;;;;;;;;5070769;28;20430;-51
2022/04/08 01:17:48;;;;;;;3.10;3.00;;;;;;;;;;5071930;28;20399;-65
2022/04/08 01:20:14;;;;;;;3.40;3.20;;;;;;;;;;5070485;28;20982;-64
2022/04/08 01:22:41;;;;;;;3.33;3.23;;;;;;;;;;5071757;28;20395;-60
2022/04/08 01:25:07;;;;;;;4.53;3.60;;;;;;;;;;5071712;28;20430;-62
2022/04/08 01:27:37;;;;;;;3.70;3.40;;;;;;;;;;5071738;28;20415;-64
2022/04/08 01:30:07;;;;;;;4.33;3.20;;;;;;;;;;5071735;28;20446;-64
2022/04/08 01:32:33;;;;;;;3.67;3.37;;;;;;;;;;5070355;28;20838;-64
2022/04/08 01:34:59;;;;;;;3.70;3.40;;;;;;;;;;5071747;28;20476;-65
2022/04/08 01:37:26;;;;;;;4.10;3.87;;;;;;;;;;5071780;28;20589;-51
2022/04/08 01:39:52;;;;;;;4.87;3.57;;;;;;;;;;5072663;28;20460;-62
2022/04/08 01:42:22;;;;;;;3.53;3.40;;;;;;;;;;5075692;28;20438;-56
2022/04/08 01:44:48;;;;;;;3.63;3.47;;;;;;;;;;5075694;28;20481;-56
2022/04/08 01:47:14;;;;;;;3.70;3.40;;;;;;;;;;5075665;28;20413;-60
2022/04/08 01:49:40;;;;;;;3.40;3.30;;;;;;;;;;5075368;28;20767;-52
2022/04/08 01:52:06;;;;;;;3.90;3.70;;;;;;;;;;5074153;28;20422;-50
2022/04/08 01:54:32;;;;;;;3.73;3.53;;;;;;;;;;5074091;28;20458;-55
2022/04/08 01:56:58;;;;;;;3.57;3.13;;;;;;;;;;5075412;28;20425;-60
2022/04/08 01:59:24;;;;;;;6.23;3.70;;;;;;;;;;5075301;28;20422;-56
2022/04/08 02:01:50;;;;;;;4.20;3.80;;;;;;;;;;5075178;28;20416;-54
2022/04/08 02:04:16;;;;;;;4.77;4.40;;;;;;;;;;5075298;28;20474;-52
2022/04/08 02:06:42;;;;;;;3.83;3.63;;;;;;;;;;5073909;28;20413;-56
2022/04/08 02:09:09;;;;;;;3.77;3.57;;;;;;;;;;5075263;28;20406;-53
2022/04/08 02:11:38;;;;;;;3.87;3.57;;;;;;;;;;5075020;28;20417;-58
2022/04/08 02:14:05;;;;;;;3.80;3.50;;;;;;;;;;5074904;28;20410;-53
2022/04/08 02:16:31;;;;;;;4.13;3.90;;;;;;;;;;5074892;28;20759;-51
2022/04/08 02:19:00;;;;;;;5.13;3.73;;;;;;;;;;5074723;28;20403;-55
2022/04/08 02:21:26;;;;;;;3.10;3.00;;;;;;;;;;5074820;28;20502;-53
2022/04/08 02:23:53;;;;;;;4.17;3.83;;;;;;;;;;5074701;28;20466;-50
2022/04/08 02:26:19;;;;;;;4.53;4.30;;;;;;;;;;5074860;28;20755;-52
2022/04/08 02:28:45;;;;;;;4.07;3.77;;;;;;;;;;5074926;28;20423;-53
2022/04/08 02:31:12;;;;;;;4.50;3.77;;;;;;;;;;5074860;28;20740;-52
2022/04/08 02:33:39;;;;;;;3.67;3.37;;;;;;;;;;5074609;28;20434;-53
2022/04/08 02:36:06;;;;;;;4.73;4.23;;;;;;;;;;5073342;28;20415;-52
2022/04/08 02:38:32;;;;;;;3.87;3.57;;;;;;;;;;5074670;28;20395;-51
2022/04/08 02:40:58;;;;;;;4.07;3.47;;;;;;;;;;5074518;28;20406;-53
2022/04/08 02:43:24;;;;;;;6.57;4.30;;;;;;;;;;5074460;28;20461;-52
2022/04/08 02:45:50;;;;;;;4.43;4.23;;;;;;;;;;5074421;28;20488;-52
2022/04/08 02:48:18;;;;;;;4.80;4.17;;;;;;;;;;5074516;28;20403;-51
2022/04/08 02:50:44;;;;;;;4.20;3.80;;;;;;;;;;5074488;28;20496;-52
2022/04/08 02:53:10;;;;;;;4.70;4.30;;;;;;;;;;5074233;28;20497;-55
2022/04/08 02:55:36;;;;;;;5.13;3.87;;;;;;;;;;5074389;28;20410;-52
2022/04/08 02:58:03;;;;;;;4.30;4.00;;;;;;;;;;5072882;28;20817;-55
2022/04/08 03:00:29;;;;;;;4.30;4.00;;;;;;;;;;5074231;28;20748;-52
2022/04/08 03:02:55;;;;;;;3.97;3.87;;;;;;;;;;5074139;28;20701;-55
2022/04/08 03:05:21;;;;;;;8.43;3.80;;;;;;;;;;5073929;28;20415;-52
2022/04/08 03:07:47;;;;;;;5.47;4.00;;;;;;;;;;5072808;28;20775;-53
2022/04/08 03:10:14;;;;;;;4.37;4.17;;;;;;;;;;5072634;28;20418;-53
2022/04/08 03:12:40;;;;;;;3.77;3.57;;;;;;;;;;5073870;28;20418;-52
2022/04/08 03:15:06;;;;;;;4.07;3.70;;;;;;;;;;5073825;28;20450;-54
2022/04/08 03:17:32;;;;;;;4.40;4.10;;;;;;;;;;5073623;28;20890;-54
2022/04/08 03:19:59;;;;;;;4.63;4.33;;;;;;;;;;5073440;28;20553;-55
2022/04/08 03:22:24;;;;;;;10.03;4.60;;;;;;;;;;5073575;28;20411;-51
2022/04/08 03:24:51;;;;;;;4.37;4.10;;;;;;;;;;5073472;28;20520;-52
2022/04/08 03:27:18;;;;;;;4.43;4.13;;;;;;;;;;5073552;28;20475;-58
2022/04/08 03:29:44;;;;;;;4.87;4.40;;;;;;;;;;5073512;28;20428;-51
2022/04/08 03:32:13;;;;;;;4.73;4.43;;;;;;;;;;5073561;28;20407;-53
2022/04/08 03:34:39;;;;;;;4.00;3.80;;;;;;;;;;5071961;28;20414;-56
2022/04/08 03:37:06;;;;;;;4.33;4.03;;;;;;;;;;5073055;28;20498;-53
2022/04/08 03:39:32;;;;;;;4.93;4.53;;;;;;;;;;5073142;28;20455;-54
2022/04/08 03:41:58;;;;;;;4.83;4.50;;;;;;;;;;5073255;28;20407;-53
2022/04/08 03:44:24;;;;;;;6.10;4.20;;;;;;;;;;5072995;28;20808;-55
2022/04/08 03:46:50;;;;;;;5.13;4.73;;;;;;;;;;5073132;28;20406;-56
2022/04/08 03:49:17;;;;;;;4.73;4.40;;;;;;;;;;5072171;28;20430;-53
2022/04/08 03:51:43;;;;;;;4.67;4.37;;;;;;;;;;5073031;28;20906;-51
2022/04/08 03:54:10;;;;;;;5.10;4.70;;;;;;;;;;5073264;28;20971;-52
2022/04/08 03:56:36;;;;;;;4.30;4.00;;;;;;;;;;5072985;28;20759;-53
2022/04/08 03:59:02;;;;;;;5.07;4.80;;;;;;;;;;5072935;28;20440;-50
2022/04/08 04:01:28;;;;;;;7.57;4.00;;;;;;;;;;5073053;28;20485;-50
2022/04/08 04:03:54;;;;;;;5.07;4.77;;;;;;;;;;5072379;28;20488;-50
2022/04/08 04:06:20;;;;;;;4.73;4.43;;;;;;;;;;5072947;28;20761;-52
2022/04/08 04:08:49;;;;;;;5.37;4.97;;;;;;;;;;5073050;28;20786;-51
2022/04/08 04:11:16;;;;;;;5.00;4.70;;;;;;;;;;5072916;28;20405;-55
2022/04/08 04:13:45;;;;;;;4.20;4.00;;;;;;;;;;5072600;28;20506;-52
2022/04/08 04:16:11;;;;;;;4.57;4.17;;;;;;;;;;5072598;28;20418;-49
2022/04/08 04:18:37;;;;;;;8.07;5.03;;;;;;;;;;5072305;28;20418;-56
2022/04/08 04:21:04;;;;;;;4.50;4.20;;;;;;;;;;5072385;28;20473;-52
2022/04/08 04:23:31;;;;;;;5.07;4.60;;;;;;;;;;5072412;28;20450;-52
2022/04/08 04:25:57;;;;;;;6.23;5.33;;;;;;;;;;5068728;28;20475;-54
2022/04/08 04:28:23;;;;;;;5.73;4.80;;;;;;;;;;5072292;28;20402;-54
2022/04/08 04:30:53;;;;;;;5.97;5.37;;;;;;;;;;5072457;28;20410;-52
2022/04/08 04:33:18;;;;;;;4.87;4.43;;;;;;;;;;5072469;28;20435;-48
2022/04/08 04:35:45;;;;;;;6.10;4.23;;;;;;;;;;5072479;28;20403;-49
2022/04/08 04:38:11;;;;;;;4.83;4.43;;;;;;;;;;5072410;28;20434;-55
2022/04/08 04:40:37;;;;;;;4.47;4.27;;;;;;;;;;5070887;28;20445;-52
2022/04/08 04:43:03;;;;;;;4.47;4.10;;;;;;;;;;5072121;28;20510;-52
2022/04/08 04:45:29;;;;;;;6.33;4.53;;;;;;;;;;5072158;28;20421;-51
2022/04/08 04:47:55;;;;;;;5.10;4.53;;;;;;;;;;5072158;28;20468;-55
2022/04/08 04:50:21;;;;;;;6.63;4.17;;;;;;;;;;5072135;28;20497;-52
2022/04/08 04:52:48;;;;;;;4.20;4.00;;;;;;;;;;5072397;28;20893;-49
2022/04/08 04:55:14;;;;;;;4.30;4.10;;;;;;;;;;5072450;28;20749;-51
2022/04/08 04:57:40;;;;;;;4.70;4.40;;;;;;;;;;5070485;28;20891;-50
2022/04/08 05:00:09;;;;;;;4.00;3.80;;;;;;;;;;5072093;28;20435;-53
2022/04/08 05:02:35;;;;;;;4.20;3.70;;;;;;;;;;5072129;28;20425;-51
2022/04/08 05:05:02;;;;;;;4.40;4.20;;;;;;;;;;5071784;28;20461;-51
2022/04/08 05:07:28;;;;;;;3.23;3.03;;;;;;;;;;5070780;28;20410;-49
2022/04/08 05:09:54;;;;;;;3.83;3.53;;;;;;;;;;5071796;28;20498;-55
2022/04/08 05:12:20;;;;;;;4.33;3.90;;;;;;;;;;5071865;28;20445;-49
2022/04/08 05:14:46;;;;;;;4.17;3.87;;;;;;;;;;5072571;28;20418;-51
2022/04/08 05:17:12;;;;;;;4.30;4.10;;;;;;;;;;5076015;28;20701;-49
2022/04/08 05:19:38;;;;;;;3.90;3.70;;;;;;;;;;5075749;28;20505;-51
2022/04/08 05:22:04;;;;;;;3.97;3.67;;;;;;;;;;5075893;28;21043;-51
2022/04/08 05:24:30;;;;;;;3.83;3.63;;;;;;;;;;5075780;28;20461;-50
2022/04/08 05:26:56;;;;;;;3.53;3.43;;;;;;;;;;5075790;28;20455;-51
2022/04/08 05:29:22;;;;;;;3.70;3.50;;;;;;;;;;5074461;28;20422;-50
2022/04/08 05:31:48;;;;;;;8.43;3.40;;;;;;;;;;5075695;28;20414;-51
2022/04/08 05:34:14;;;;;;;3.40;3.30;;;;;;;;;;5075608;28;20414;-49
2022/04/08 05:36:40;;;;;;;4.10;3.90;;;;;;;;;;5075489;28;20875;-57
2022/04/08 05:39:06;;;;;;;3.70;3.40;;;;;;;;;;5075457;28;20421;-50
2022/04/08 05:41:32;;;;;;;4.00;3.70;;;;;;;;;;5074263;28;20411;-52
2022/04/08 05:43:58;;;;;;;4.27;3.97;;;;;;;;;;5075229;28;20838;-53
2022/04/08 05:46:24;;;;;;;4.53;4.30;;;;;;;;;;5075370;28;20411;-51
2022/04/08 05:48:50;;;;;;;3.40;3.30;;;;;;;;;;5074042;28;20419;-52
2022/04/08 05:51:16;;;;;;;3.80;3.50;;;;;;;;;;5075542;28;20411;-51
2022/04/08 05:53:42;;;;;;;3.53;3.43;;;;;;;;;;5075385;28;20840;-51
2022/04/08 05:56:08;;;;;;;3.67;3.47;;;;;;;;;;5073994;28;20423;-54
2022/04/08 05:58:34;;;;;;;3.90;3.70;;;;;;;;;;5075267;28;20810;-51
2022/04/08 06:01:01;;;;;;;4.13;3.90;;;;;;;;;;5075219;28;20407;-54
2022/04/08 06:03:27;;;;;;;3.83;3.43;;;;;;;;;;5075077;28;20454;-53
2022/04/08 06:05:53;;;;;;;3.77;3.57;;;;;;;;;;5075241;28;20415;-51
2022/04/08 06:08:19;;;;;;;4.10;3.90;;;;;;;;;;5075047;28;20415;-55
2022/04/08 06:10:45;;;;;;;3.53;3.13;;;;;;;;;;5075332;28;20419;-54
2022/04/08 06:13:11;;;;;;;3.27;3.07;;;;;;;;;;5074938;28;20406;-52
2022/04/08 06:15:37;;;;;;;3.60;3.40;;;;;;;;;;5075015;28;20798;-52
2022/04/08 06:18:03;;;;;;;3.83;3.50;;;;;;;;;;5074822;28;20407;-54
2022/04/08 06:20:29;;;;;;;4.20;3.90;;;;;;;;;;5074500;28;20549;-53
2022/04/08 06:22:59;;;;;;;3.93;3.73;;;;;;;;;;5074743;28;20403;-53
2022/04/08 06:25:25;;;;;;;6.50;3.70;;;;;;;;;;5074378;28;20472;-52
2022/04/08 06:27:57;;;;;;;4.40;3.77;;;;;;;;;;5074707;28;20495;-51
2022/04/08 06:30:24;;;;;;;3.60;3.50;;;;;;;;;;5074775;28;20448;-52
2022/04/08 06:32:50;;;;;;;3.40;3.30;;;;;;;;;;5074780;28;20431;-48
2022/04/08 06:35:16;;;;;;;3.80;3.60;;;;;;;;;;5074722;28;20438;-52
2022/04/08 06:37:45;;;;;;;3.63;3.47;;;;;;;;;;5074517;28;20407;-51
2022/04/08 06:40:11;;;;;;;4.40;4.10;;;;;;;;;;5074619;28;20403;-52
2022/04/08 06:42:38;;;;;;;5.13;3.67;;;;;;;;;;5073079;28;20414;-57
2022/04/08 06:45:05;;;;;;;3.70;3.60;;;;;;;;;;5074436;28;20986;-52
2022/04/08 06:47:31;;;;;;;3.60;3.40;;;;;;;;;;5074546;28;20810;-53
2022/04/08 06:49:57;;;;;;;3.00;2.80;;;;;;;;;;5074382;28;20414;-50
2022/04/08 06:52:23;;;;;;;3.53;3.23;;;;;;;;;;5074265;28;20971;-54
2022/04/08 06:54:49;;;;;;;2.97;2.77;;;;;;;;;;5074004;28;20513;-52
2022/04/08 06:57:15;;;;;;;2.97;2.87;;;;;;;;;;5074329;28;20497;-53
2022/04/08 06:59:41;;;;;;;3.57;3.43;;;;;;;;;;5074282;28;20457;-53
2022/04/08 07:02:08;;;;;;;3.60;3.30;;;;;;;;;;5074064;28;20757;-56
2022/04/08 07:04:35;;;;;;;3.30;3.17;;;;;;;;;;5075392;28;20469;-52
2022/04/08 07:07:04;;;;;;;3.37;3.20;;;;;;;;;;5058363;28;20502;-51
2022/04/08 07:09:32;;;;;;;3.20;3.10;;;;;;;;;;5093879;28;20414;-56
2022/04/08 07:11:58;;;;;;;3.57;3.47;;;;;;;;;;5086805;28;20977;-56
2022/04/08 07:14:24;;;;;;;3.47;3.27;;;;;;;;;;5092043;28;20500;-54
2022/04/08 07:16:50;;;;;;;3.60;3.50;;;;;;;;;;5092237;28;20778;-54
2022/04/08 07:19:16;;;;;;;3.90;3.70;;;;;;;;;;5093432;28;20457;-52
2022/04/08 07:21:42;;;;;;;3.33;3.13;;;;;;;;;;5075229;28;20410;-56
2022/04/08 07:24:08;;;;;;;3.60;3.50;;;;;;;;;;5072969;28;20501;-53
2022/04/08 07:26:34;;;;;;;3.90;3.70;;;;;;;;;;5073046;28;20431;-54
2022/04/08 07:29:00;;;;;;;4.63;4.33;;;;;;;;;;5073037;28;20484;-52
2022/04/08 07:31:30;;;;;;;4.53;4.13;;;;;;;;;;5072933;28;20903;-53
2022/04/08 07:33:56;;;;;;;4.60;4.20;;;;;;;;;;5071555;28;20426;-56
2022/04/08 07:36:22;;;;;;;4.20;3.90;;;;;;;;;;5071081;28;20455;-60
2022/04/08 07:38:48;;;;;;;5.50;4.73;;;;;;;;;;5089248;28;20568;-53
2022/04/08 07:41:14;;;;;;;3.83;3.63;;;;;;;;;;5093174;28;20408;-57
2022/04/08 07:43:40;;;;;;;5.70;5.20;;;;;;;;;;5091529;28;20468;-53
2022/04/08 07:46:06;;;;;;;3.80;3.50;;;;;;;;;;5079080;28;20415;-54
2022/04/08 07:48:35;;;;;;;3.20;3.00;;;;;;;;;;5072366;28;20806;-55
2022/04/08 07:51:01;;;;;;;3.57;3.37;;;;;;;;;;5072294;28;20934;-53
2022/04/08 07:53:27;;;;;;;3.67;3.27;;;;;;;;;;5072416;28;20418;-57
2022/04/08 07:55:56;;;;;;;3.77;3.50;;;;;;;;;;5072246;28;20414;-57
2022/04/08 07:58:22;;;;;;;3.57;3.40;;;;;;;;;;5071000;28;20846;-54
2022/04/08 08:00:48;;;;;;;13.93;3.40;;;;;;;;;;5072397;28;20418;-53
2022/04/08 08:03:19;;;;;;;2.83;2.73;;;;;;;;;;5072305;28;20467;-57
2022/04/08 08:05:45;;;;;;;3.43;3.13;;;;;;;;;;5072325;28;20452;-59
2022/04/08 08:08:11;;;;;;;3.57;3.30;;;;;;;;;;5071108;28;20425;-55
2022/04/08 08:10:39;;;;;;;3.30;3.20;;;;;;;;;;5070654;28;20503;-53
2022/04/08 08:13:05;;;;;;;3.10;2.97;;;;;;;;;;5091623;28;20408;-57
2022/04/08 08:15:32;;;;;;;3.07;2.97;;;;;;;;;;5091044;28;20468;-58
2022/04/08 08:17:58;;;;;;;3.40;3.20;;;;;;;;;;5092302;28;20433;-55
2022/04/08 08:20:25;;;;;;;3.93;3.63;;;;;;;;;;5063982;28;20462;-55
2022/04/08 08:22:51;;;;;;;3.17;3.07;;;;;;;;;;5060094;28;20407;-56
2022/04/08 08:25:18;;;;;;;3.07;2.90;;;;;;;;;;5063603;28;20467;-51
2022/04/08 08:27:48;;;;;;;4.30;3.10;;;;;;;;;;5063047;28;20462;-53
2022/04/08 08:30:15;;;;;;;3.67;3.40;;;;;;;;;;5062187;28;20434;-57
2022/04/08 08:32:44;;;;;;;3.40;3.20;;;;;;;;;;5059208;28;20472;-54
2022/04/08 08:35:11;;;;;;;4.77;3.20;;;;;;;;;;5061972;28;20423;-56
2022/04/08 08:37:37;;;;;;;3.37;3.27;;;;;;;;;;5058418;28;20411;-55
2022/04/08 08:40:04;;;;;;;3.23;3.03;;;;;;;;;;5071494;28;20468;-52
2022/04/08 08:42:30;;;;;;;3.60;3.50;;;;;;;;;;5071647;28;20407;-53
2022/04/08 08:44:56;;;;;;;3.97;3.77;;;;;;;;;;5071448;28;20478;-54
2022/04/08 08:47:23;;;;;;;4.00;3.70;;;;;;;;;;5054535;28;20445;-55
2022/04/08 08:49:50;;;;;;;3.00;2.90;;;;;;;;;;5051334;28;20436;-53
2022/04/08 08:52:18;;;;;;;4.23;3.87;;;;;;;;;;5051825;28;20399;-58
2022/04/08 08:54:45;;;;;;;3.90;3.70;;;;;;;;;;5050390;28;20423;-51
2022/04/08 08:57:12;;;;;;;3.47;3.37;;;;;;;;;;5050230;28;20412;-55
2022/04/08 08:59:38;;;;;;;3.83;3.43;;;;;;;;;;5051169;28;20414;-55
2022/04/08 09:02:04;;;;;;;3.53;3.40;;;;;;;;;;5051424;28;20400;-56
2022/04/08 09:04:30;;;;;;;3.67;3.37;;;;;;;;;;5068761;28;20592;-54
2022/04/08 09:06:57;;;;;;;3.97;3.60;;;;;;;;;;5071331;28;20399;-56
2022/04/08 09:09:32;;;;;;;3.80;3.43;;;;;;;;;;5071107;28;20771;-53
2022/04/08 09:12:09;;;;;;;3.70;3.43;;;;;;;;;;5070626;28;20764;-52
2022/04/08 09:14:35;;;;;;;4.17;3.20;;;;;;;;;;5071274;28;20501;-56
2022/04/08 09:17:01;;;;;;;3.30;3.20;;;;;;;;;;5070154;28;20549;-56
2022/04/08 09:19:32;;;;;;;3.30;3.20;;;;;;;;;;5071042;28;20457;-53
2022/04/08 09:21:58;;;;;;;3.40;3.10;;;;;;;;;;5071071;28;20406;-55
2022/04/08 09:24:24;;;;;;;3.40;3.30;;;;;;;;;;5070809;28;20462;-55
2022/04/08 09:26:54;;;;;;;4.47;3.60;;;;;;;;;;5069856;28;20421;-55
2022/04/08 09:29:21;;;;;;;3.80;3.60;;;;;;;;;;5071212;28;20407;-57
2022/04/08 09:31:56;;;;;;;3.93;3.73;;;;;;;;;;5061068;28;20461;-52
2022/04/08 09:34:22;;;;;;;5.40;3.47;;;;;;;;;;5061756;28;20414;-58
2022/04/08 09:36:49;;;;;;;3.20;3.00;;;;;;;;;;5060140;28;20783;-60
2022/04/08 09:39:16;;;;;;;3.70;3.23;;;;;;;;;;5071069;28;20414;-59
2022/04/08 09:41:52;;;;;;;4.93;3.53;;;;;;;;;;5070945;28;20752;-55
2022/04/08 09:44:24;;;;;;;3.80;3.50;;;;;;;;;;5070648;28;20523;-51
2022/04/08 09:46:50;;;;;;;4.20;3.40;;;;;;;;;;5070993;28;20464;-55
2022/04/08 09:49:16;;;;;;;3.30;3.17;;;;;;;;;;5071085;28;20918;-58
2022/04/08 09:51:42;;;;;;;4.90;3.50;;;;;;;;;;5069460;28;20809;-56
2022/04/08 09:54:12;;;;;;;3.40;3.20;;;;;;;;;;5070461;28;20978;-59
2022/04/08 09:56:39;;;;;;;4.60;4.20;;;;;;;;;;5070687;28;20403;-52
2022/04/08 09:59:12;;;;;;;5.17;3.50;;;;;;;;;;5071171;28;20911;-56
2022/04/08 10:01:39;;;;;;;4.93;3.90;;;;;;;;;;5073425;28;20438;-56
2022/04/08 10:04:07;;;;;;;3.57;3.27;;;;;;;;;;5074862;28;20477;-51
2022/04/08 10:06:33;;;;;;;4.60;3.40;;;;;;;;;;5074892;28;20414;-56
2022/04/08 10:09:00;;;;;;;3.67;3.47;;;;;;;;;;5074772;28;20922;-57
2022/04/08 10:11:31;;;;;;;3.20;3.10;;;;;;;;;;5080762;28;20402;-55
2022/04/08 10:14:05;;;;;;;3.37;3.27;;;;;;;;;;5094697;28;20405;-53
2022/04/08 10:16:31;;;;;;;3.07;2.90;;;;;;;;;;5094964;28;20475;-58
2022/04/08 10:19:04;;;;;;;3.67;3.37;;;;;;;;;;5094886;28;20406;-56
2022/04/08 10:21:40;;;;;;;4.13;3.70;;;;;;;;;;5094932;28;20433;-51
2022/04/08 10:24:21;;;;;;;3.50;3.30;;;;;;;;;;5094689;28;20468;-51
2022/04/08 10:27:04;;;;;;;3.80;3.60;;;;;;;;;;5095150;28;20434;-52
2022/04/08 10:29:34;;;;;;;3.93;3.47;;;;;;;;;;5093616;28;20424;-53
2022/04/08 10:32:04;;;;;;;4.00;3.50;;;;;;;;;;5076778;28;20807;-53
2022/04/08 10:34:32;;;;;;;3.87;3.47;;;;;;;;;;5073196;28;20510;-58
2022/04/08 10:36:58;;;;;;;3.33;3.23;;;;;;;;;;5070507;28;20403;-51
2022/04/08 10:39:24;;;;;;;3.70;3.40;;;;;;;;;;5053074;28;20477;-54
2022/04/08 10:41:52;;;;;;;5.93;4.30;;;;;;;;;;5054152;28;20454;-59
2022/04/08 10:44:30;;;;;;;4.27;4.07;;;;;;;;;;5053998;28;20866;-52
2022/04/08 10:46:57;;;;;;;6.60;3.30;;;;;;;;;;5054186;28;20404;-56
2022/04/08 10:49:23;;;;;;;6.63;3.73;;;;;;;;;;5054076;28;20408;-69
2022/04/08 10:51:50;;;;;;;5.67;3.87;;;;;;;;;;5053987;28;20407;-61
2022/04/08 10:54:17;;;;;;;5.43;4.20;;;;;;;;;;5054249;28;20469;-57
2022/04/08 10:56:43;;;;;;;3.87;3.60;;;;;;;;;;5054024;28;20403;-55
2022/04/08 10:59:10;;;;;;;6.37;3.90;;;;;;;;;;5053848;28;20468;-59
2022/04/08 11:01:46;;;;;;;4.60;4.17;;;;;;;;;;5053523;28;20498;-50
2022/04/08 11:04:12;;;;;;;10.10;4.53;;;;;;;;;;5053586;28;21002;-55
2022/04/08 11:06:38;;;;;;;4.43;4.00;;;;;;;;;;5053804;28;20415;-54
2022/04/08 11:09:08;;;;;;;7.20;3.80;;;;;;;;;;5053943;28;20423;-52
2022/04/08 11:11:35;;;;;;;4.23;4.03;;;;;;;;;;5066942;28;20405;-52
2022/04/08 11:14:02;;;;;;;4.20;3.80;;;;;;;;;;5092800;28;20436;-53
2022/04/08 11:16:31;;;;;;;4.47;4.07;;;;;;;;;;5093755;28;20412;-52
2022/04/08 11:19:00;;;;;;;7.90;3.90;;;;;;;;;;5093651;28;20501;-51
2022/04/08 11:21:28;;;;;;;4.20;3.90;;;;;;;;;;5093787;28;20487;-52
2022/04/08 11:23:58;;;;;;;4.03;3.73;;;;;;;;;;5093538;28;20457;-55
2022/04/08 11:26:24;;;;;;;4.27;3.90;;;;;;;;;;5093596;28;21000;-53
2022/04/08 11:28:50;;;;;;;4.20;3.90;;;;;;;;;;5093555;28;20477;-51
2022/04/08 11:31:19;;;;;;;4.57;4.17;;;;;;;;;;5093628;28;20418;-52
2022/04/08 11:33:47;;;;;;;5.17;4.60;;;;;;;;;;5093797;28;20433;-52
2022/04/08 11:36:14;;;;;;;4.33;4.03;;;;;;;;;;5092400;28;20422;-50
2022/04/08 11:38:42;;;;;;;5.90;4.50;;;;;;;;;;5075172;28;20406;-54
2022/04/08 11:41:20;;;;;;;4.83;4.40;;;;;;;;;;5073042;28;20434;-50
2022/04/08 11:43:47;;;;;;;4.60;4.30;;;;;;;;;;5071846;28;20473;-58
2022/04/08 11:46:14;;;;;;;4.63;4.30;;;;;;;;;;5073227;28;20399;-52
2022/04/08 11:48:40;;;;;;;4.67;4.37;;;;;;;;;;5072710;28;20408;-53
2022/04/08 11:51:06;;;;;;;4.10;3.90;;;;;;;;;;5071660;28;20446;-52
2022/04/08 11:53:41;;;;;;;4.30;4.00;;;;;;;;;;5072593;28;20765;-53
2022/04/08 11:56:07;;;;;;;6.23;4.40;;;;;;;;;;5072484;28;20425;-52
2022/04/08 11:58:33;;;;;;;4.40;4.07;;;;;;;;;;5072773;28;20407;-52
2022/04/08 12:01:01;;;;;;;3.97;3.77;;;;;;;;;;5072771;28;20407;-53
2022/04/08 12:03:30;;;;;;;4.67;4.13;;;;;;;;;;5072753;28;20461;-57
2022/04/08 12:05:57;;;;;;;4.77;4.33;;;;;;;;;;5072485;28;20414;-56
2022/04/08 12:08:23;;;;;;;7.50;4.33;;;;;;;;;;5072248;28;20402;-56
2022/04/08 12:10:53;;;;;;;5.97;4.23;;;;;;;;;;5072441;28;20814;-52
2022/04/08 12:13:20;;;;;;;4.60;4.30;;;;;;;;;;5072528;28;20432;-52
2022/04/08 12:15:48;;;;;;;5.33;4.93;;;;;;;;;;5072242;28;20514;-52
2022/04/08 12:18:20;;;;;;;4.77;4.40;;;;;;;;;;5072388;28;20411;-53
2022/04/08 12:20:46;;;;;;;4.63;4.20;;;;;;;;;;5072285;28;20463;-56
2022/04/08 12:23:13;;;;;;;4.83;4.50;;;;;;;;;;5071805;28;20417;-55
2022/04/08 12:25:41;;;;;;;7.30;5.10;;;;;;;;;;5072103;28;20456;-51
2022/04/08 12:28:14;;;;;;;3.90;3.67;;;;;;;;;;5072156;28;20456;-56
2022/04/08 12:30:41;;;;;;;4.60;4.33;;;;;;;;;;5072205;28;20413;-54
2022/04/08 12:33:07;;;;;;;4.27;3.87;;;;;;;;;;5071897;28;20407;-51
2022/04/08 12:35:33;;;;;;;4.60;4.30;;;;;;;;;;5071170;28;20763;-54
2022/04/08 12:37:59;;;;;;;4.60;4.40;;;;;;;;;;5071906;28;20928;-52
2022/04/08 12:40:26;;;;;;;5.77;5.27;;;;;;;;;;5065663;28;20921;-54
2022/04/08 12:42:52;;;;;;;5.03;4.63;;;;;;;;;;5059412;28;20415;-56
2022/04/08 12:45:18;;;;;;;5.20;4.70;;;;;;;;;;5061824;28;20698;-51
2022/04/08 12:47:44;;;;;;;5.60;5.10;;;;;;;;;;5062157;28;20415;-52
2022/04/08 12:50:12;;;;;;;5.57;5.20;;;;;;;;;;5060356;28;20416;-53
2022/04/08 12:52:41;;;;;;;5.80;5.37;;;;;;;;;;5061346;28;20712;-55
2022/04/08 12:55:07;;;;;;;5.03;4.53;;;;;;;;;;5059611;28;20419;-57
2022/04/08 12:57:34;;;;;;;5.43;4.40;;;;;;;;;;5050538;28;20930;-55
2022/04/08 13:00:00;;;;;;;6.30;5.70;;;;;;;;;;5051556;28;20828;-53
2022/04/08 13:02:27;;;;;;;5.40;5.00;;;;;;;;;;5070087;28;20868;-55
2022/04/08 13:04:53;;;;;;;5.50;5.20;;;;;;;;;;5071420;28;21037;-53
2022/04/08 13:07:19;;;;;;;5.40;4.90;;;;;;;;;;5071592;28;20826;-54
2022/04/08 13:09:45;;;;;;;5.83;5.33;;;;;;;;;;5070768;28;20462;-54
2022/04/08 13:12:11;;;;;;;5.93;5.20;;;;;;;;;;5071764;28;20411;-56
2022/04/08 13:14:37;;;;;;;5.90;5.33;;;;;;;;;;5066729;28;20416;-54
2022/04/08 13:17:03;;;;;;;6.27;5.77;;;;;;;;;;5057890;28;20407;-53
2022/04/08 13:19:29;;;;;;;6.33;5.83;;;;;;;;;;5070077;28;20577;-55
2022/04/08 13:21:56;;;;;;;5.80;5.40;;;;;;;;;;5070347;28;20497;-50
2022/04/08 13:24:22;;;;;;;6.10;5.60;;;;;;;;;;5071583;28;20497;-53
2022/04/08 13:26:48;;;;;;;7.23;6.03;;;;;;;;;;5071610;28;20418;-55
2022/04/08 13:29:14;;;;;;;6.67;6.17;;;;;;;;;;5071624;28;20402;-52
2022/04/08 13:31:40;;;;;;;6.67;6.17;;;;;;;;;;5071516;28;20419;-56
2022/04/08 13:34:06;;;;;;;6.70;6.20;;;;;;;;;;5071424;28;20410;-58
2022/04/08 13:36:32;;;;;;;7.10;6.50;;;;;;;;;;5073116;28;20783;-55
2022/04/08 13:38:58;;;;;;;8.90;6.10;;;;;;;;;;5055429;28;20785;-56
2022/04/08 13:41:24;;;;;;;7.00;6.30;;;;;;;;;;5053949;28;20420;-59
2022/04/08 13:43:50;;;;;;;7.33;6.73;;;;;;;;;;5061322;28;20516;-59
2022/04/08 13:46:17;;;;;;;6.83;6.13;;;;;;;;;;5074265;28;20452;-57
2022/04/08 13:48:43;;;;;;;7.97;7.23;;;;;;;;;;5075228;28;20456;-59
2022/04/08 13:51:09;;;;;;;7.63;6.60;;;;;;;;;;5073928;28;20498;-57
2022/04/08 13:53:35;;;;;;;7.30;6.70;;;;;;;;;;5075175;28;20486;-59
2022/04/08 13:56:04;;;;;;;8.90;6.83;;;;;;;;;;5074965;28;20407;-60
2022/04/08 13:58:30;;;;;;;6.87;6.20;;;;;;;;;;5074959;28;20406;-59
2022/04/08 14:00:56;;;;;;;6.97;6.37;;;;;;;;;;5075130;28;20413;-56
2022/04/08 14:03:25;;;;;;;6.67;4.60;;;;;;;;;;5074768;28;20413;-59
2022/04/08 14:05:51;;;;;;;7.90;5.87;;;;;;;;;;5074781;28;20425;-61
2022/04/08 14:08:17;;;;;;;6.13;5.73;;;;;;;;;;5074982;28;20407;-61
2022/04/08 14:10:43;;;;;;;5.37;5.07;;;;;;;;;;5074997;28;20418;-59
2022/04/08 14:13:09;;;;;;;6.70;6.10;;;;;;;;;;5074583;28;20539;-61
2022/04/08 14:15:35;;;;;;;6.70;6.00;;;;;;;;;;5074887;28;20415;-59
2022/04/08 14:18:02;;;;;;;6.13;5.63;;;;;;;;;;5074569;28;20481;-62
2022/04/08 14:20:28;;;;;;;5.83;5.30;;;;;;;;;;5074654;28;20454;-62
2022/04/08 14:22:55;;;;;;;7.10;6.50;;;;;;;;;;5073344;28;20438;-61
2022/04/08 14:25:24;;;;;;;6.70;6.27;;;;;;;;;;5074447;28;20538;-63
2022/04/08 14:27:50;;;;;;;7.27;6.57;;;;;;;;;;5074432;28;20906;-59
2022/04/08 14:30:17;;;;;;;6.60;6.00;;;;;;;;;;5074600;28;20413;-61
2022/04/08 14:32:44;;;;;;;7.27;6.53;;;;;;;;;;5074656;28;20417;-62
2022/04/08 14:35:11;;;;;;;8.57;5.93;;;;;;;;;;5074368;28;20452;-60
2022/04/08 14:37:37;;;;;;;6.23;5.70;;;;;;;;;;5065246;28;20411;-64
2022/04/08 14:40:05;;;;;;;6.37;5.90;;;;;;;;;;5054208;28;20437;-58
2022/04/08 14:42:32;;;;;;;6.73;6.20;;;;;;;;;;5054233;28;20404;-58